Rockton, Illinois
Current Conditions -  °F | °C
As of 5:45 AM on Tuesday 27 Jan 2015 (Local Time) from KJVL Reporting Station
Haze Haze  
Wind Chill: 27°   Ceiling: 700
Heat Index: 27°   Visibility: 5mi
Dew Point: 25°   Wind: 0mph
Humidity: 93%   Direction: NA
Pressure: 30.05"   Gusts: NA
Location:  42.45°N, 89.07°W
Report Text: KJVL 271145Z 00000KT 5SM BR BKN007 OVC036 M03/M04 A3005 RMK FIRST
Loading
Personal Weather Stations






























Interactive Weather Map New forecast layout! Learn more

10-Day Weather Forecast

Advertisements
Track Severe Weather on mobile